sensor_id;sensor_type;location;lat;lon;timestamp;pressure;altitude;pressure_sealevel;temperature;humidity
17764;BME280;22245;52.832;13.816;2023-05-02T00:01:48;101151.13;;;11.49;61.70
17764;BME280;22245;52.832;13.816;2023-05-02T00:05:10;101146.03;;;11.46;61.95
17764;BME280;22245;52.832;13.816;2023-05-02T00:08:31;101148.97;;;11.43;62.06
17764;BME280;22245;52.832;13.816;2023-05-02T00:11:53;101140.38;;;11.39;61.71
17764;BME280;22245;52.832;13.816;2023-05-02T00:15:16;101143.16;;;11.38;62.17
17764;BME280;22245;52.832;13.816;2023-05-02T00:18:37;101141.72;;;11.34;62.33
17764;BME280;22245;52.832;13.816;2023-05-02T00:22:00;101135.94;;;11.28;62.56
17764;BME280;22245;52.832;13.816;2023-05-02T00:25:21;101135.31;;;11.25;62.96
17764;BME280;22245;52.832;13.816;2023-05-02T00:28:42;101141.88;;;11.21;63.11
17764;BME280;22245;52.832;13.816;2023-05-02T00:32:06;101139.59;;;11.16;63.72
17764;BME280;22245;52.832;13.816;2023-05-02T00:35:28;101138.88;;;11.14;63.80
17764;BME280;22245;52.832;13.816;2023-05-02T00:38:50;101137.56;;;11.08;63.59
17764;BME280;22245;52.832;13.816;2023-05-02T00:42:11;101131.75;;;11.03;63.61
17764;BME280;22245;52.832;13.816;2023-05-02T00:45:32;101133.00;;;10.99;63.88
17764;BME280;22245;52.832;13.816;2023-05-02T00:48:55;101127.03;;;10.95;64.57
17764;BME280;22245;52.832;13.816;2023-05-02T00:52:17;101125.72;;;10.90;64.40
17764;BME280;22245;52.832;13.816;2023-05-02T00:55:40;101130.56;;;10.84;64.85
17764;BME280;22245;52.832;13.816;2023-05-02T00:59:01;101124.66;;;10.81;64.74
17764;BME280;22245;52.832;13.816;2023-05-02T01:02:31;101118.97;;;10.74;65.39
17764;BME280;22245;52.832;13.816;2023-05-02T01:06:06;101129.88;;;10.71;65.32
17764;BME280;22245;52.832;13.816;2023-05-02T01:09:36;101117.75;;;10.67;65.72
17764;BME280;22245;52.832;13.816;2023-05-02T01:13:05;101125.28;;;10.62;65.43
17764;BME280;22245;52.832;13.816;2023-05-02T01:16:29;101132.75;;;10.56;65.93
17764;BME280;22245;52.832;13.816;2023-05-02T01:19:53;101127.19;;;10.48;65.71
17764;BME280;22245;52.832;13.816;2023-05-02T01:23:24;101125.88;;;10.42;65.84
17764;BME280;22245;52.832;13.816;2023-05-02T01:26:52;101131.41;;;10.39;65.92
17764;BME280;22245;52.832;13.816;2023-05-02T01:30:22;101129.94;;;10.35;66.54
17764;BME280;22245;52.832;13.816;2023-05-02T01:33:45;101133.94;;;10.30;66.50
17764;BME280;22245;52.832;13.816;2023-05-02T01:37:10;101129.13;;;10.23;66.29
17764;BME280;22245;52.832;13.816;2023-05-02T01:40:33;101139.13;;;10.20;66.58
17764;BME280;22245;52.832;13.816;2023-05-02T01:43:56;101131.50;;;10.15;66.59
17764;BME280;22245;52.832;13.816;2023-05-02T01:47:21;101137.19;;;10.10;66.59
17764;BME280;22245;52.832;13.816;2023-05-02T01:50:46;101142.84;;;10.06;67.12
17764;BME280;22245;52.832;13.816;2023-05-02T01:54:11;101142.22;;;10.02;66.86
17764;BME280;22245;52.832;13.816;2023-05-02T01:57:34;101142.59;;;9.97;67.06
17764;BME280;22245;52.832;13.816;2023-05-02T02:00:58;101140.41;;;9.91;67.44
17764;BME280;22245;52.832;13.816;2023-05-02T02:04:22;101142.44;;;9.88;67.08
17764;BME280;22245;52.832;13.816;2023-05-02T02:07:46;101149.94;;;9.82;67.50
17764;BME280;22245;52.832;13.816;2023-05-02T02:11:11;101145.91;;;9.77;67.71
17764;BME280;22245;52.832;13.816;2023-05-02T02:14:36;101156.78;;;9.74;67.52
17764;BME280;22245;52.832;13.816;2023-05-02T02:17:59;101166.84;;;9.70;67.81
17764;BME280;22245;52.832;13.816;2023-05-02T02:21:27;101159.19;;;9.65;68.33
17764;BME280;22245;52.832;13.816;2023-05-02T02:24:52;101167.63;;;9.59;68.35
17764;BME280;22245;52.832;13.816;2023-05-02T02:28:14;101173.19;;;9.56;68.17
17764;BME280;22245;52.832;13.816;2023-05-02T02:31:36;101175.19;;;9.52;67.42
17764;BME280;22245;52.832;13.816;2023-05-02T02:34:58;101174.38;;;9.52;67.55
17764;BME280;22245;52.832;13.816;2023-05-02T02:38:28;101185.75;;;9.54;66.95
17764;BME280;22245;52.832;13.816;2023-05-02T02:41:59;101188.41;;;9.54;67.31
17764;BME280;22245;52.832;13.816;2023-05-02T02:45:31;101195.19;;;9.58;68.14
17764;BME280;22245;52.832;13.816;2023-05-02T02:48:56;101198.06;;;9.55;68.10
17764;BME280;22245;52.832;13.816;2023-05-02T02:52:29;101201.69;;;9.54;68.62
17764;BME280;22245;52.832;13.816;2023-05-02T02:56:00;101205.31;;;9.53;68.09
17764;BME280;22245;52.832;13.816;2023-05-02T02:59:27;101215.22;;;9.51;68.15
17764;BME280;22245;52.832;13.816;2023-05-02T03:02:51;101217.00;;;9.50;67.96
17764;BME280;22245;52.832;13.816;2023-05-02T03:06:14;101224.97;;;9.50;68.20
17764;BME280;22245;52.832;13.816;2023-05-02T03:09:40;101232.13;;;9.50;68.12
17764;BME280;22245;52.832;13.816;2023-05-02T03:13:05;101236.72;;;9.48;68.17
17764;BME280;22245;52.832;13.816;2023-05-02T03:16:33;101240.31;;;9.47;67.97
17764;BME280;22245;52.832;13.816;2023-05-02T03:19:58;101245.63;;;9.47;68.00
17764;BME280;22245;52.832;13.816;2023-05-02T03:23:20;101246.06;;;9.40;68.16
17764;BME280;22245;52.832;13.816;2023-05-02T03:26:43;101255.00;;;9.39;67.99
17764;BME280;22245;52.832;13.816;2023-05-02T03:30:10;101264.81;;;9.39;68.17
17764;BME280;22245;52.832;13.816;2023-05-02T03:33:32;101259.50;;;9.39;67.88
17764;BME280;22245;52.832;13.816;2023-05-02T03:36:53;101266.00;;;9.35;68.00
17764;BME280;22245;52.832;13.816;2023-05-02T03:40:15;101274.06;;;9.33;68.18
17764;BME280;22245;52.832;13.816;2023-05-02T03:43:41;101268.88;;;9.32;68.29
17764;BME280;22245;52.832;13.816;2023-05-02T03:47:04;101281.50;;;9.28;68.50
17764;BME280;22245;52.832;13.816;2023-05-02T03:50:31;101294.81;;;9.28;68.67
17764;BME280;22245;52.832;13.816;2023-05-02T03:53:53;101289.59;;;9.26;68.26
17764;BME280;22245;52.832;13.816;2023-05-02T03:57:14;101300.13;;;9.28;68.21
17764;BME280;22245;52.832;13.816;2023-05-02T04:00:36;101300.03;;;9.30;68.05
17764;BME280;22245;52.832;13.816;2023-05-02T04:04:02;101304.47;;;9.29;67.58
17764;BME280;22245;52.832;13.816;2023-05-02T04:07:29;101307.88;;;9.31;67.68
17764;BME280;22245;52.832;13.816;2023-05-02T04:10:54;101313.84;;;9.35;67.75
17764;BME280;22245;52.832;13.816;2023-05-02T04:14:16;101327.88;;;9.37;67.82
17764;BME280;22245;52.832;13.816;2023-05-02T04:17:38;101330.53;;;9.37;67.88
17764;BME280;22245;52.832;13.816;2023-05-02T04:21:03;101328.69;;;9.37;67.92
17764;BME280;22245;52.832;13.816;2023-05-02T04:24:25;101343.59;;;9.40;68.13
17764;BME280;22245;52.832;13.816;2023-05-02T04:27:47;101342.72;;;9.39;68.08
17764;BME280;22245;52.832;13.816;2023-05-02T04:31:12;101351.56;;;9.40;67.98
17764;BME280;22245;52.832;13.816;2023-05-02T04:34:36;101365.59;;;9.42;68.73
17764;BME280;22245;52.832;13.816;2023-05-02T04:37:59;101374.53;;;9.41;67.49
17764;BME280;22245;52.832;13.816;2023-05-02T04:41:21;101378.78;;;9.44;67.12
17764;BME280;22245;52.832;13.816;2023-05-02T04:44:50;101382.94;;;9.48;67.28
17764;BME280;22245;52.832;13.816;2023-05-02T04:48:12;101389.00;;;9.50;67.24
17764;BME280;22245;52.832;13.816;2023-05-02T04:51:33;101380.91;;;9.51;67.25
17764;BME280;22245;52.832;13.816;2023-05-02T04:54:56;101378.75;;;9.56;67.22
17764;BME280;22245;52.832;13.816;2023-05-02T04:58:18;101397.06;;;9.61;67.46
17764;BME280;22245;52.832;13.816;2023-05-02T05:01:49;101386.09;;;9.66;67.55
17764;BME280;22245;52.832;13.816;2023-05-02T05:05:11;101396.19;;;9.74;67.24
17764;BME280;22245;52.832;13.816;2023-05-02T05:08:32;101396.47;;;9.82;67.04
17764;BME280;22245;52.832;13.816;2023-05-02T05:11:56;101409.25;;;9.90;66.71
17764;BME280;22245;52.832;13.816;2023-05-02T05:15:18;101410.50;;;9.97;66.88
17764;BME280;22245;52.832;13.816;2023-05-02T05:18:46;101410.16;;;10.02;66.63
17764;BME280;22245;52.832;13.816;2023-05-02T05:22:08;101420.38;;;10.08;66.44
17764;BME280;22245;52.832;13.816;2023-05-02T05:25:30;101422.59;;;10.14;66.64
17764;BME280;22245;52.832;13.816;2023-05-02T05:28:54;101434.47;;;10.21;66.09
17764;BME280;22245;52.832;13.816;2023-05-02T05:32:19;101427.75;;;10.28;66.02
17764;BME280;22245;52.832;13.816;2023-05-02T05:35:43;101432.63;;;10.35;66.89
17764;BME280;22245;52.832;13.816;2023-05-02T05:39:05;101425.81;;;10.44;66.67
17764;BME280;22245;52.832;13.816;2023-05-02T05:42:29;101420.88;;;10.50;66.00
17764;BME280;22245;52.832;13.816;2023-05-02T05:45:55;101438.72;;;10.61;65.92
17764;BME280;22245;52.832;13.816;2023-05-02T05:49:17;101436.56;;;10.66;65.67
17764;BME280;22245;52.832;13.816;2023-05-02T05:52:41;101453.06;;;10.71;65.12
17764;BME280;22245;52.832;13.816;2023-05-02T05:56:09;101450.78;;;10.78;65.44
17764;BME280;22245;52.832;13.816;2023-05-02T05:59:34;101459.06;;;10.86;65.66
17764;BME280;22245;52.832;13.816;2023-05-02T06:02:58;101473.28;;;10.98;65.64
17764;BME280;22245;52.832;13.816;2023-05-02T06:06:24;101479.00;;;11.05;66.16
17764;BME280;22245;52.832;13.816;2023-05-02T06:09:47;101471.25;;;11.13;66.29
17764;BME280;22245;52.832;13.816;2023-05-02T06:13:08;101482.91;;;11.24;66.08
17764;BME280;22245;52.832;13.816;2023-05-02T06:16:33;101489.47;;;11.31;66.43
17764;BME280;22245;52.832;13.816;2023-05-02T06:19:57;101505.03;;;11.37;66.13
17764;BME280;22245;52.832;13.816;2023-05-02T06:23:19;101513.28;;;11.46;66.36
17764;BME280;22245;52.832;13.816;2023-05-02T06:26:41;101521.53;;;11.54;65.75
17764;BME280;22245;52.832;13.816;2023-05-02T06:30:03;101518.53;;;11.58;66.07
17764;BME280;22245;52.832;13.816;2023-05-02T06:33:25;101529.22;;;11.58;66.52
17764;BME280;22245;52.832;13.816;2023-05-02T06:36:53;101538.78;;;11.61;66.56
17764;BME280;22245;52.832;13.816;2023-05-02T06:40:15;101552.13;;;11.61;66.15
17764;BME280;22245;52.832;13.816;2023-05-02T06:43:36;101553.56;;;11.65;66.52
17764;BME280;22245;52.832;13.816;2023-05-02T06:46:57;101553.34;;;11.68;66.31
17764;BME280;22245;52.832;13.816;2023-05-02T06:50:19;101567.94;;;11.76;66.46
17764;BME280;22245;52.832;13.816;2023-05-02T06:53:42;101558.97;;;11.77;66.99
17764;BME280;22245;52.832;13.816;2023-05-02T06:57:03;101574.50;;;11.83;66.99
17764;BME280;22245;52.832;13.816;2023-05-02T07:00:25;101577.03;;;11.84;67.37
17764;BME280;22245;52.832;13.816;2023-05-02T07:03:47;101579.69;;;11.84;66.77
17764;BME280;22245;52.832;13.816;2023-05-02T07:07:08;101580.19;;;11.90;67.17
17764;BME280;22245;52.832;13.816;2023-05-02T07:10:32;101591.00;;;11.99;66.74
17764;BME280;22245;52.832;13.816;2023-05-02T07:13:54;101587.78;;;12.07;66.67
17764;BME280;22245;52.832;13.816;2023-05-02T07:17:15;101594.94;;;12.18;66.62
17764;BME280;22245;52.832;13.816;2023-05-02T07:20:36;101597.59;;;12.29;66.44
17764;BME280;22245;52.832;13.816;2023-05-02T07:24:00;101603.19;;;12.38;65.60
17764;BME280;22245;52.832;13.816;2023-05-02T07:27:24;101608.19;;;12.42;64.95
17764;BME280;22245;52.832;13.816;2023-05-02T07:30:46;101604.03;;;12.50;64.71
17764;BME280;22245;52.832;13.816;2023-05-02T07:34:07;101604.66;;;12.53;64.39
17764;BME280;22245;52.832;13.816;2023-05-02T07:37:33;101603.91;;;12.63;65.71
17764;BME280;22245;52.832;13.816;2023-05-02T07:40:57;101612.78;;;12.74;64.60
17764;BME280;22245;52.832;13.816;2023-05-02T07:44:20;101615.16;;;12.89;64.13
17764;BME280;22245;52.832;13.816;2023-05-02T07:47:42;101627.91;;;12.97;63.46
17764;BME280;22245;52.832;13.816;2023-05-02T07:51:05;101619.63;;;13.00;63.63
17764;BME280;22245;52.832;13.816;2023-05-02T07:54:27;101621.81;;;13.06;63.18
17764;BME280;22245;52.832;13.816;2023-05-02T07:57:49;101626.06;;;13.09;63.27
17764;BME280;22245;52.832;13.816;2023-05-02T08:01:11;101638.69;;;13.07;63.04
17764;BME280;22245;52.832;13.816;2023-05-02T08:04:33;101652.41;;;13.13;63.34
17764;BME280;22245;52.832;13.816;2023-05-02T08:07:55;101635.84;;;13.20;63.04
17764;BME280;22245;52.832;13.816;2023-05-02T08:11:16;101649.34;;;13.29;62.54
17764;BME280;22245;52.832;13.816;2023-05-02T08:14:41;101652.09;;;13.39;62.20
17764;BME280;22245;52.832;13.816;2023-05-02T08:18:04;101651.88;;;13.42;62.50
17764;BME280;22245;52.832;13.816;2023-05-02T08:21:26;101661.59;;;13.43;61.70
17764;BME280;22245;52.832;13.816;2023-05-02T08:24:48;101651.50;;;13.47;61.94
17764;BME280;22245;52.832;13.816;2023-05-02T08:28:09;101667.03;;;13.53;61.67
17764;BME280;22245;52.832;13.816;2023-05-02T08:31:31;101666.97;;;13.43;61.03
17764;BME280;22245;52.832;13.816;2023-05-02T08:34:55;101674.88;;;13.45;61.52
17764;BME280;22245;52.832;13.816;2023-05-02T08:38:17;101671.31;;;13.44;61.93
17764;BME280;22245;52.832;13.816;2023-05-02T08:41:39;101673.63;;;13.49;62.04
17764;BME280;22245;52.832;13.816;2023-05-02T08:45:01;101685.78;;;13.53;62.13
17764;BME280;22245;52.832;13.816;2023-05-02T08:48:23;101688.06;;;13.58;61.60
17764;BME280;22245;52.832;13.816;2023-05-02T08:51:48;101699.84;;;13.67;61.12
17764;BME280;22245;52.832;13.816;2023-05-02T08:55:11;101702.69;;;13.54;61.12
17764;BME280;22245;52.832;13.816;2023-05-02T08:58:34;101705.34;;;13.54;61.87
17764;BME280;22245;52.832;13.816;2023-05-02T09:02:00;101715.81;;;13.57;61.96
17764;BME280;22245;52.832;13.816;2023-05-02T09:05:25;101725.28;;;13.61;61.48
17764;BME280;22245;52.832;13.816;2023-05-02T09:08:49;101728.81;;;13.62;61.21
17764;BME280;22245;52.832;13.816;2023-05-02T09:12:12;101736.94;;;13.60;61.21
17764;BME280;22245;52.832;13.816;2023-05-02T09:15:33;101734.41;;;13.58;61.53
17764;BME280;22245;52.832;13.816;2023-05-02T09:18:56;101737.22;;;13.57;60.63
17764;BME280;22245;52.832;13.816;2023-05-02T09:22:22;101755.72;;;13.49;60.68
17764;BME280;22245;52.832;13.816;2023-05-02T09:25:45;101755.34;;;13.42;60.49
17764;BME280;22245;52.832;13.816;2023-05-02T09:29:06;101761.81;;;13.39;60.57
17764;BME280;22245;52.832;13.816;2023-05-02T09:32:45;101762.78;;;13.38;60.84
17764;BME280;22245;52.832;13.816;2023-05-02T09:36:11;101767.66;;;13.44;61.01
17764;BME280;22245;52.832;13.816;2023-05-02T09:39:34;101767.56;;;13.46;61.55
17764;BME280;22245;52.832;13.816;2023-05-02T09:42:57;101767.66;;;13.44;61.40
17764;BME280;22245;52.832;13.816;2023-05-02T09:46:19;101771.22;;;13.45;62.00
17764;BME280;22245;52.832;13.816;2023-05-02T09:49:42;101776.56;;;13.45;62.65
17764;BME280;22245;52.832;13.816;2023-05-02T09:53:07;101780.94;;;13.46;62.84
17764;BME280;22245;52.832;13.816;2023-05-02T09:56:30;101788.97;;;13.46;63.28
17764;BME280;22245;52.832;13.816;2023-05-02T09:59:55;101793.91;;;13.39;62.86
17764;BME280;22245;52.832;13.816;2023-05-02T10:03:18;101795.38;;;13.32;63.38
17764;BME280;22245;52.832;13.816;2023-05-02T10:06:40;101798.31;;;13.29;64.16
17764;BME280;22245;52.832;13.816;2023-05-02T10:10:02;101807.53;;;13.36;64.66
17764;BME280;22245;52.832;13.816;2023-05-02T10:13:26;101806.09;;;13.43;65.45
17764;BME280;22245;52.832;13.816;2023-05-02T10:16:58;101812.91;;;13.48;65.50
17764;BME280;22245;52.832;13.816;2023-05-02T10:20:22;101812.78;;;13.49;65.18
17764;BME280;22245;52.832;13.816;2023-05-02T10:23:48;101810.13;;;13.49;65.54
17764;BME280;22245;52.832;13.816;2023-05-02T10:27:12;101834.69;;;13.54;65.54
17764;BME280;22245;52.832;13.816;2023-05-02T10:30:34;101848.91;;;13.43;64.71
17764;BME280;22245;52.832;13.816;2023-05-02T10:33:58;101843.78;;;13.29;65.68
17764;BME280;22245;52.832;13.816;2023-05-02T10:37:21;101849.75;;;13.21;66.00
17764;BME280;22245;52.832;13.816;2023-05-02T10:40:52;101849.59;;;13.00;65.13
17764;BME280;22245;52.832;13.816;2023-05-02T10:44:17;101854.72;;;12.92;65.80
17764;BME280;22245;52.832;13.816;2023-05-02T10:47:38;101851.31;;;12.90;65.96
17764;BME280;22245;52.832;13.816;2023-05-02T10:51:01;101866.00;;;12.95;66.38
17764;BME280;22245;52.832;13.816;2023-05-02T10:54:23;101866.88;;;12.96;64.87
17764;BME280;22245;52.832;13.816;2023-05-02T10:58:18;101885.59;;;12.96;65.10
17764;BME280;22245;52.832;13.816;2023-05-02T11:01:41;101886.66;;;12.93;65.17
17764;BME280;22245;52.832;13.816;2023-05-02T11:05:03;101887.03;;;12.88;64.82
17764;BME280;22245;52.832;13.816;2023-05-02T11:08:30;101893.28;;;12.76;64.10
17764;BME280;22245;52.832;13.816;2023-05-02T11:11:54;101888.66;;;12.67;63.42
17764;BME280;22245;52.832;13.816;2023-05-02T11:15:53;101908.31;;;12.54;62.63
17764;BME280;22245;52.832;13.816;2023-05-02T11:19:16;101911.03;;;12.41;63.12
17764;BME280;22245;52.832;13.816;2023-05-02T11:22:37;101908.09;;;12.33;62.86
17764;BME280;22245;52.832;13.816;2023-05-02T11:26:19;101918.41;;;12.38;62.40
17764;BME280;22245;52.832;13.816;2023-05-02T11:29:51;101922.34;;;12.45;61.56
17764;BME280;22245;52.832;13.816;2023-05-02T11:33:15;101920.53;;;12.45;60.80
17764;BME280;22245;52.832;13.816;2023-05-02T11:36:36;101923.53;;;12.41;60.56
17764;BME280;22245;52.832;13.816;2023-05-02T11:40:09;101925.38;;;12.40;59.99
17764;BME280;22245;52.832;13.816;2023-05-02T11:43:32;101936.50;;;12.34;60.01
17764;BME280;22245;52.832;13.816;2023-05-02T11:46:54;101949.31;;;12.29;59.89
17764;BME280;22245;52.832;13.816;2023-05-02T11:50:15;101951.56;;;12.35;60.51
17764;BME280;22245;52.832;13.816;2023-05-02T11:53:39;101964.19;;;12.33;58.82
17764;BME280;22245;52.832;13.816;2023-05-02T11:57:01;101965.72;;;12.24;59.43
17764;BME280;22245;52.832;13.816;2023-05-02T12:00:27;101971.09;;;12.11;58.65
17764;BME280;22245;52.832;13.816;2023-05-02T12:03:49;101969.19;;;12.00;58.93
17764;BME280;22245;52.832;13.816;2023-05-02T12:07:11;101972.47;;;11.91;58.97
17764;BME280;22245;52.832;13.816;2023-05-02T12:10:36;101974.19;;;11.92;58.48
17764;BME280;22245;52.832;13.816;2023-05-02T12:13:58;101980.50;;;11.91;58.50
17764;BME280;22245;52.832;13.816;2023-05-02T12:17:21;101990.44;;;11.89;57.35
17764;BME280;22245;52.832;13.816;2023-05-02T12:20:44;101983.25;;;11.90;56.64
17764;BME280;22245;52.832;13.816;2023-05-02T12:24:05;101988.38;;;11.93;57.69
17764;BME280;22245;52.832;13.816;2023-05-02T12:27:28;101991.59;;;11.98;56.47
17764;BME280;22245;52.832;13.816;2023-05-02T12:30:52;101992.25;;;12.01;56.51
17764;BME280;22245;52.832;13.816;2023-05-02T12:34:30;101997.50;;;12.03;55.50
17764;BME280;22245;52.832;13.816;2023-05-02T12:37:52;102004.63;;;12.02;55.51
17764;BME280;22245;52.832;13.816;2023-05-02T12:41:15;102007.59;;;12.11;55.79
17764;BME280;22245;52.832;13.816;2023-05-02T12:44:37;102018.59;;;12.19;55.82
17764;BME280;22245;52.832;13.816;2023-05-02T12:48:00;102007.47;;;12.25;55.14
17764;BME280;22245;52.832;13.816;2023-05-02T12:51:23;102009.78;;;12.30;55.47
17764;BME280;22245;52.832;13.816;2023-05-02T12:54:45;102001.22;;;12.38;54.80
17764;BME280;22245;52.832;13.816;2023-05-02T12:58:07;102014.03;;;12.45;55.31
17764;BME280;22245;52.832;13.816;2023-05-02T13:01:29;102016.47;;;12.49;53.58
17764;BME280;22245;52.832;13.816;2023-05-02T13:04:53;102031.81;;;12.34;52.56
17764;BME280;22245;52.832;13.816;2023-05-02T13:08:16;102033.31;;;12.25;53.32
17764;BME280;22245;52.832;13.816;2023-05-02T13:11:37;102033.53;;;12.22;53.81
17764;BME280;22245;52.832;13.816;2023-05-02T13:14:59;102035.78;;;12.28;53.71
17764;BME280;22245;52.832;13.816;2023-05-02T13:18:21;102039.09;;;12.19;53.65
17764;BME280;22245;52.832;13.816;2023-05-02T13:21:43;102029.16;;;12.21;54.21
17764;BME280;22245;52.832;13.816;2023-05-02T13:25:07;102046.81;;;12.23;53.72
17764;BME280;22245;52.832;13.816;2023-05-02T13:28:29;102040.59;;;12.23;53.51
17764;BME280;22245;52.832;13.816;2023-05-02T13:31:52;102047.88;;;12.21;53.63
17764;BME280;22245;52.832;13.816;2023-05-02T13:35:14;102047.56;;;12.12;53.25
17764;BME280;22245;52.832;13.816;2023-05-02T13:38:36;102057.28;;;12.13;53.35
17764;BME280;22245;52.832;13.816;2023-05-02T13:41:59;102060.47;;;12.06;52.97
17764;BME280;22245;52.832;13.816;2023-05-02T13:45:25;102069.25;;;11.95;53.38
17764;BME280;22245;52.832;13.816;2023-05-02T13:48:46;102066.22;;;11.86;53.60
17764;BME280;22245;52.832;13.816;2023-05-02T13:52:08;102070.19;;;11.81;52.69
17764;BME280;22245;52.832;13.816;2023-05-02T13:55:29;102073.16;;;11.76;52.95
17764;BME280;22245;52.832;13.816;2023-05-02T13:58:53;102079.25;;;11.78;54.04
17764;BME280;22245;52.832;13.816;2023-05-02T14:02:15;102082.91;;;11.90;53.05
17764;BME280;22245;52.832;13.816;2023-05-02T14:05:36;102084.59;;;11.91;52.02
17764;BME280;22245;52.832;13.816;2023-05-02T14:09:00;102097.84;;;11.80;51.96
17764;BME280;22245;52.832;13.816;2023-05-02T14:12:22;102094.00;;;11.71;52.01
17764;BME280;22245;52.832;13.816;2023-05-02T14:15:44;102117.25;;;11.69;52.25
17764;BME280;22245;52.832;13.816;2023-05-02T14:19:06;102102.41;;;11.52;51.99
17764;BME280;22245;52.832;13.816;2023-05-02T14:22:28;102102.06;;;11.43;52.17
17764;BME280;22245;52.832;13.816;2023-05-02T14:25:49;102112.28;;;11.37;52.15
17764;BME280;22245;52.832;13.816;2023-05-02T14:29:10;102111.31;;;11.38;52.16
17764;BME280;22245;52.832;13.816;2023-05-02T14:32:33;102111.88;;;11.43;52.03
17764;BME280;22245;52.832;13.816;2023-05-02T14:35:55;102115.94;;;11.49;52.94
17764;BME280;22245;52.832;13.816;2023-05-02T14:39:17;102119.56;;;11.48;51.57
17764;BME280;22245;52.832;13.816;2023-05-02T14:42:39;102119.16;;;11.54;51.65
17764;BME280;22245;52.832;13.816;2023-05-02T14:46:00;102124.75;;;11.36;51.46
17764;BME280;22245;52.832;13.816;2023-05-02T14:49:23;102134.66;;;11.21;51.21
17764;BME280;22245;52.832;13.816;2023-05-02T14:52:44;102139.91;;;11.08;51.93
17764;BME280;22245;52.832;13.816;2023-05-02T14:56:11;102130.84;;;11.11;52.47
17764;BME280;22245;52.832;13.816;2023-05-02T14:59:33;102150.19;;;11.14;52.08
17764;BME280;22245;52.832;13.816;2023-05-02T15:02:55;102146.22;;;11.07;52.58
17764;BME280;22245;52.832;13.816;2023-05-02T15:06:18;102151.19;;;10.99;53.42
17764;BME280;22245;52.832;13.816;2023-05-02T15:09:40;102162.63;;;10.86;53.37
17764;BME280;22245;52.832;13.816;2023-05-02T15:13:01;102147.31;;;10.76;53.54
17764;BME280;22245;52.832;13.816;2023-05-02T15:16:24;102168.81;;;10.73;53.74
17764;BME280;22245;52.832;13.816;2023-05-02T15:19:46;102173.78;;;10.64;53.57
17764;BME280;22245;52.832;13.816;2023-05-02T15:23:09;102173.41;;;10.56;53.14
17764;BME280;22245;52.832;13.816;2023-05-02T15:26:31;102175.41;;;10.52;53.82
17764;BME280;22245;52.832;13.816;2023-05-02T15:29:52;102176.16;;;10.54;53.17
17764;BME280;22245;52.832;13.816;2023-05-02T15:33:14;102186.94;;;10.53;52.62
17764;BME280;22245;52.832;13.816;2023-05-02T15:36:35;102185.09;;;10.53;52.38
17764;BME280;22245;52.832;13.816;2023-05-02T15:39:58;102188.44;;;10.57;51.97
17764;BME280;22245;52.832;13.816;2023-05-02T15:43:20;102187.03;;;10.66;52.15
17764;BME280;22245;52.832;13.816;2023-05-02T15:46:42;102172.69;;;10.96;50.88
17764;BME280;22245;52.832;13.816;2023-05-02T15:50:06;102173.44;;;11.12;50.40
17764;BME280;22245;52.832;13.816;2023-05-02T15:53:30;102174.94;;;11.17;50.88
17764;BME280;22245;52.832;13.816;2023-05-02T15:56:53;102180.34;;;11.15;50.51
17764;BME280;22245;52.832;13.816;2023-05-02T16:00:14;102181.69;;;11.22;50.57
17764;BME280;22245;52.832;13.816;2023-05-02T16:03:37;102185.88;;;11.26;50.14
17764;BME280;22245;52.832;13.816;2023-05-02T16:06:59;102181.38;;;11.27;49.55
17764;BME280;22245;52.832;13.816;2023-05-02T16:10:20;102193.88;;;11.26;49.27
17764;BME280;22245;52.832;13.816;2023-05-02T16:13:43;102193.13;;;11.24;48.30
17764;BME280;22245;52.832;13.816;2023-05-02T16:17:05;102194.31;;;11.33;48.37
17764;BME280;22245;52.832;13.816;2023-05-02T16:20:26;102186.69;;;11.41;48.90
17764;BME280;22245;52.832;13.816;2023-05-02T16:23:48;102190.47;;;11.65;47.36
17764;BME280;22245;52.832;13.816;2023-05-02T16:27:10;102187.00;;;11.90;46.34
17764;BME280;22245;52.832;13.816;2023-05-02T16:30:35;102183.03;;;12.36;46.91
17764;BME280;22245;52.832;13.816;2023-05-02T16:33:57;102185.09;;;12.83;45.32
17764;BME280;22245;52.832;13.816;2023-05-02T16:37:18;102175.31;;;13.32;44.26
17764;BME280;22245;52.832;13.816;2023-05-02T16:40:40;102186.06;;;13.68;43.53
17764;BME280;22245;52.832;13.816;2023-05-02T16:44:02;102194.78;;;13.83;43.02
17764;BME280;22245;52.832;13.816;2023-05-02T16:47:25;102191.16;;;13.95;41.59
17764;BME280;22245;52.832;13.816;2023-05-02T16:50:47;102200.88;;;13.85;41.52
17764;BME280;22245;52.832;13.816;2023-05-02T16:54:08;102203.91;;;13.56;41.18
17764;BME280;22245;52.832;13.816;2023-05-02T16:57:29;102199.47;;;13.06;41.97
17764;BME280;22245;52.832;13.816;2023-05-02T17:00:51;102208.72;;;12.89;42.21
17764;BME280;22245;52.832;13.816;2023-05-02T17:04:14;102201.81;;;12.61;42.25
17764;BME280;22245;52.832;13.816;2023-05-02T17:07:35;102206.84;;;12.39;42.95
17764;BME280;22245;52.832;13.816;2023-05-02T17:10:57;102213.47;;;12.34;43.49
17764;BME280;22245;52.832;13.816;2023-05-02T17:14:19;102215.59;;;12.28;44.33
17764;BME280;22245;52.832;13.816;2023-05-02T17:17:41;102216.13;;;12.21;44.21
17764;BME280;22245;52.832;13.816;2023-05-02T17:21:05;102211.22;;;12.14;44.10
17764;BME280;22245;52.832;13.816;2023-05-02T17:24:27;102213.88;;;12.14;44.46
17764;BME280;22245;52.832;13.816;2023-05-02T17:27:49;102215.50;;;12.17;44.36
17764;BME280;22245;52.832;13.816;2023-05-02T17:31:10;102210.91;;;12.19;44.54
17764;BME280;22245;52.832;13.816;2023-05-02T17:34:32;102220.28;;;12.25;44.59